sensor_id;sensor_type;location;lat;lon;timestamp;P1;P4;P2;P0;N10;N4;N25;N1;N05;TS
66034;SPS30;52805;51.074;5.842;2023-02-01T00:02:00;1.81;1.80;1.78;1.67;13.33;13.33;13.32;13.25;11.27;0.59
66034;SPS30;52805;51.074;5.842;2023-02-01T00:04:26;1.95;1.94;1.92;1.80;14.35;14.35;14.34;14.26;12.12;0.59
66034;SPS30;52805;51.074;5.842;2023-02-01T00:06:52;1.98;1.96;1.93;1.79;14.30;14.30;14.29;14.19;12.05;0.60
66034;SPS30;52805;51.074;5.842;2023-02-01T00:09:18;2.04;2.02;1.98;1.82;14.55;14.55;14.53;14.43;12.23;0.60
66034;SPS30;52805;51.074;5.842;2023-02-01T00:11:44;2.05;2.03;1.99;1.83;14.62;14.62;14.60;14.49;12.29;0.61
66034;SPS30;52805;51.074;5.842;2023-02-01T00:14:10;2.03;2.02;1.98;1.84;14.68;14.68;14.66;14.57;12.37;0.62
66034;SPS30;52805;51.074;5.842;2023-02-01T00:16:36;1.99;1.97;1.93;1.78;14.21;14.20;14.19;14.09;11.95;0.61
66034;SPS30;52805;51.074;5.842;2023-02-01T00:19:20;2.12;2.10;2.06;1.90;15.20;15.20;15.18;15.07;12.79;0.60
66034;SPS30;52805;51.074;5.842;2023-02-01T00:21:46;2.22;2.20;2.16;2.00;15.94;15.94;15.93;15.81;13.41;0.61
66034;SPS30;52805;51.074;5.842;2023-02-01T00:24:12;2.08;2.06;2.02;1.87;14.91;14.91;14.89;14.79;12.54;0.59
66034;SPS30;52805;51.074;5.842;2023-02-01T00:26:39;2.23;2.20;2.14;1.96;15.67;15.66;15.64;15.51;13.13;0.59
66034;SPS30;52805;51.074;5.842;2023-02-01T00:29:16;2.37;2.34;2.29;2.11;16.86;16.85;16.84;16.71;14.16;0.59
66034;SPS30;52805;51.074;5.842;2023-02-01T00:31:44;2.90;2.88;2.83;2.61;20.88;20.88;20.86;20.71;17.58;0.58
66034;SPS30;52805;51.074;5.842;2023-02-01T00:34:11;2.77;2.74;2.69;2.48;19.82;19.81;19.79;19.65;16.66;0.59
66034;SPS30;52805;51.074;5.842;2023-02-01T00:36:39;3.09;3.08;3.06;2.87;22.89;22.89;22.87;22.76;19.37;0.58
66034;SPS30;52805;51.074;5.842;2023-02-01T00:39:06;2.70;2.70;2.69;2.54;20.25;20.25;20.24;20.15;17.17;0.60
66034;SPS30;52805;51.074;5.842;2023-02-01T00:41:32;2.75;2.74;2.73;2.56;20.47;20.46;20.46;20.36;17.33;0.59
66034;SPS30;52805;51.074;5.842;2023-02-01T00:43:58;3.07;3.06;3.04;2.86;22.81;22.81;22.80;22.69;19.32;0.58
66034;SPS30;52805;51.074;5.842;2023-02-01T00:46:24;2.83;2.83;2.82;2.65;21.16;21.15;21.14;21.05;17.93;0.57
66034;SPS30;52805;51.074;5.842;2023-02-01T00:48:50;2.36;2.36;2.36;2.23;17.83;17.83;17.82;17.75;15.14;0.56
66034;SPS30;52805;51.074;5.842;2023-02-01T00:51:21;2.55;2.53;2.51;2.35;18.78;18.77;18.76;18.66;15.88;0.58
66034;SPS30;52805;51.074;5.842;2023-02-01T00:53:49;2.46;2.45;2.43;2.28;18.21;18.21;18.20;18.11;15.41;0.58
66034;SPS30;52805;51.074;5.842;2023-02-01T00:56:16;2.45;2.43;2.40;2.24;17.86;17.85;17.84;17.73;15.07;0.59
66034;SPS30;52805;51.074;5.842;2023-02-01T00:58:42;2.67;2.65;2.62;2.43;19.43;19.42;19.41;19.29;16.38;0.59
66034;SPS30;52805;51.074;5.842;2023-02-01T01:01:27;2.67;2.66;2.64;2.48;19.79;19.78;19.77;19.68;16.75;0.58
66034;SPS30;52805;51.074;5.842;2023-02-01T01:03:57;2.96;2.95;2.94;2.76;22.07;22.06;22.06;21.96;18.70;0.58
66034;SPS30;52805;51.074;5.842;2023-02-01T01:06:25;2.93;2.93;2.92;2.75;22.00;21.99;21.99;21.89;18.66;0.57
66034;SPS30;52805;51.074;5.842;2023-02-01T01:08:57;2.75;2.74;2.73;2.57;20.54;20.54;20.53;20.44;17.41;0.57
66034;SPS30;52805;51.074;5.842;2023-02-01T01:11:29;2.92;2.92;2.92;2.76;22.01;22.01;22.00;21.92;18.68;0.56
66034;SPS30;52805;51.074;5.842;2023-02-01T01:13:57;2.78;2.78;2.77;2.61;20.82;20.82;20.81;20.72;17.65;0.58
66034;SPS30;52805;51.074;5.842;2023-02-01T01:16:25;2.40;2.40;2.39;2.26;18.05;18.04;18.04;17.96;15.31;0.57
66034;SPS30;52805;51.074;5.842;2023-02-01T01:18:52;2.44;2.44;2.44;2.30;18.40;18.40;18.39;18.32;15.62;0.55
66034;SPS30;52805;51.074;5.842;2023-02-01T01:21:19;2.76;2.76;2.76;2.61;20.84;20.84;20.83;20.75;17.70;0.56
66034;SPS30;52805;51.074;5.842;2023-02-01T01:23:45;2.68;2.68;2.68;2.52;20.14;20.14;20.13;20.05;17.09;0.58
66034;SPS30;52805;51.074;5.842;2023-02-01T01:26:13;2.77;2.77;2.76;2.61;20.81;20.81;20.80;20.71;17.65;0.57
66034;SPS30;52805;51.074;5.842;2023-02-01T01:28:47;2.44;2.43;2.42;2.27;18.11;18.11;18.10;18.01;15.33;0.58
66034;SPS30;52805;51.074;5.842;2023-02-01T01:31:15;2.53;2.52;2.52;2.37;18.92;18.92;18.91;18.83;16.04;0.57
66034;SPS30;52805;51.074;5.842;2023-02-01T01:33:43;2.84;2.84;2.83;2.66;21.27;21.27;21.26;21.17;18.03;0.57
66034;SPS30;52805;51.074;5.842;2023-02-01T01:36:10;2.59;2.59;2.59;2.45;19.52;19.52;19.52;19.44;16.57;0.57
66034;SPS30;52805;51.074;5.842;2023-02-01T01:38:40;3.00;2.98;2.94;2.74;21.91;21.90;21.89;21.76;18.49;0.59
66034;SPS30;52805;51.074;5.842;2023-02-01T01:41:07;2.74;2.73;2.72;2.56;20.46;20.46;20.45;20.36;17.34;0.57
66034;SPS30;52805;51.074;5.842;2023-02-01T01:43:47;2.68;2.67;2.64;2.48;19.78;19.78;19.77;19.66;16.73;0.58
66034;SPS30;52805;51.074;5.842;2023-02-01T01:46:23;2.62;2.60;2.56;2.38;18.98;18.98;18.97;18.84;16.00;0.61
66034;SPS30;52805;51.074;5.842;2023-02-01T01:51:43;2.61;2.61;2.60;2.44;19.50;19.50;19.49;19.40;16.53;0.59
66034;SPS30;52805;51.074;5.842;2023-02-01T01:54:41;2.41;2.41;2.41;2.27;18.12;18.12;18.11;18.04;15.37;0.57
66034;SPS30;52805;51.074;5.842;2023-02-01T01:57:09;2.30;2.30;2.30;2.18;17.38;17.38;17.37;17.31;14.76;0.56
66034;SPS30;52805;51.074;5.842;2023-02-01T01:59:41;2.59;2.59;2.59;2.45;19.58;19.57;19.57;19.49;16.62;0.56
66034;SPS30;52805;51.074;5.842;2023-02-01T02:02:14;2.37;2.37;2.36;2.23;17.84;17.84;17.83;17.76;15.14;0.57
66034;SPS30;52805;51.074;5.842;2023-02-01T02:04:41;2.49;2.48;2.47;2.32;18.49;18.48;18.48;18.38;15.65;0.59
66034;SPS30;52805;51.074;5.842;2023-02-01T02:07:11;2.56;2.56;2.55;2.40;19.18;19.17;19.17;19.08;16.26;0.57
66034;SPS30;52805;51.074;5.842;2023-02-01T02:09:46;2.59;2.59;2.59;2.45;19.53;19.52;19.52;19.44;16.58;0.56
66034;SPS30;52805;51.074;5.842;2023-02-01T02:12:12;2.36;2.35;2.33;2.18;17.42;17.42;17.41;17.32;14.74;0.58
66034;SPS30;52805;51.074;5.842;2023-02-01T02:14:37;2.64;2.63;2.62;2.46;19.63;19.63;19.62;19.53;16.62;0.57
66034;SPS30;52805;51.074;5.842;2023-02-01T02:40:52;2.53;2.53;2.53;2.39;19.08;19.08;19.07;19.00;16.20;0.56
66034;SPS30;52805;51.074;5.842;2023-02-01T02:43:30;2.91;2.91;2.91;2.75;21.94;21.93;21.93;21.85;18.63;0.56
66034;SPS30;52805;51.074;5.842;2023-02-01T02:46:29;2.80;2.80;2.80;2.64;21.11;21.11;21.10;21.02;17.92;0.56
66034;SPS30;52805;51.074;5.842;2023-02-01T02:52:03;2.47;2.46;2.43;2.28;18.18;18.18;18.17;18.07;15.37;0.58
66034;SPS30;52805;51.074;5.842;2023-02-01T02:54:57;2.50;2.50;2.48;2.33;18.63;18.62;18.61;18.53;15.78;0.58
66034;SPS30;52805;51.074;5.842;2023-02-01T02:57:28;2.67;2.65;2.62;2.45;19.56;19.56;19.55;19.44;16.53;0.59
66034;SPS30;52805;51.074;5.842;2023-02-01T03:00:19;2.55;2.53;2.49;2.31;18.44;18.43;18.42;18.30;15.53;0.60
66034;SPS30;52805;51.074;5.842;2023-02-01T03:03:08;2.65;2.62;2.56;2.35;18.81;18.80;18.79;18.64;15.80;0.62
66034;SPS30;52805;51.074;5.842;2023-02-01T03:05:52;2.72;2.70;2.65;2.46;19.62;19.62;19.60;19.47;16.52;0.60
66034;SPS30;52805;51.074;5.842;2023-02-01T03:08:23;2.82;2.79;2.73;2.52;20.10;20.09;20.08;19.93;16.89;0.60
66034;SPS30;52805;51.074;5.842;2023-02-01T03:11:10;2.60;2.56;2.49;2.27;18.17;18.17;18.14;17.99;15.22;0.62
66034;SPS30;52805;51.074;5.842;2023-02-01T03:13:45;2.60;2.56;2.50;2.28;18.24;18.24;18.22;18.06;15.29;0.61
66034;SPS30;52805;51.074;5.842;2023-02-01T03:16:20;2.77;2.75;2.69;2.48;19.83;19.83;19.81;19.66;16.67;0.60
66034;SPS30;52805;51.074;5.842;2023-02-01T03:21:24;2.39;2.37;2.32;2.14;17.07;17.06;17.05;16.92;14.35;0.60
66034;SPS30;52805;51.074;5.842;2023-02-01T03:24:00;2.58;2.54;2.46;2.23;17.83;17.82;17.80;17.63;14.89;0.63
66034;SPS30;52805;51.074;5.842;2023-02-01T03:26:33;2.86;2.80;2.68;2.40;19.19;19.18;19.15;18.93;15.94;0.64
66034;SPS30;52805;51.074;5.842;2023-02-01T03:29:14;2.68;2.63;2.52;2.26;18.06;18.05;18.02;17.82;15.01;0.61
66034;SPS30;52805;51.074;5.842;2023-02-01T03:31:46;2.53;2.49;2.41;2.18;17.45;17.44;17.42;17.25;14.57;0.60
66034;SPS30;52805;51.074;5.842;2023-02-01T03:34:12;2.41;2.36;2.27;2.04;16.34;16.33;16.31;16.13;13.60;0.59
66034;SPS30;52805;51.074;5.842;2023-02-01T03:36:43;2.88;2.80;2.66;2.35;18.77;18.76;18.72;18.46;15.50;0.61
66034;SPS30;52805;51.074;5.842;2023-02-01T03:39:18;2.48;2.42;2.30;2.03;16.24;16.23;16.20;15.98;13.42;0.63
66034;SPS30;52805;51.074;5.842;2023-02-01T03:41:51;2.19;2.14;2.03;1.80;14.38;14.37;14.34;14.15;11.88;0.63
66034;SPS30;52805;51.074;5.842;2023-02-01T03:44:26;2.20;2.15;2.06;1.84;14.69;14.68;14.66;14.48;12.19;0.62
66034;SPS30;52805;51.074;5.842;2023-02-01T03:47:19;2.38;2.32;2.21;1.96;15.66;15.65;15.62;15.42;12.95;0.64
66034;SPS30;52805;51.074;5.842;2023-02-01T03:49:52;2.44;2.37;2.23;1.95;15.63;15.62;15.59;15.35;12.86;0.67
66034;SPS30;52805;51.074;5.842;2023-02-01T03:52:27;2.46;2.38;2.22;1.91;15.31;15.30;15.25;14.99;12.51;0.68
66034;SPS30;52805;51.074;5.842;2023-02-01T03:55:03;2.48;2.39;2.21;1.88;15.02;15.01;14.96;14.68;12.21;0.69
66034;SPS30;52805;51.074;5.842;2023-02-01T03:57:32;2.56;2.46;2.27;1.92;15.34;15.33;15.28;14.97;12.43;0.68
66034;SPS30;52805;51.074;5.842;2023-02-01T04:00:15;2.13;2.06;1.92;1.65;13.23;13.22;13.18;12.95;10.80;0.66
66034;SPS30;52805;51.074;5.842;2023-02-01T04:02:43;2.64;2.54;2.33;1.97;15.79;15.78;15.73;15.41;12.80;0.67
66034;SPS30;52805;51.074;5.842;2023-02-01T04:05:09;2.70;2.58;2.33;1.92;15.37;15.35;15.29;14.92;12.30;0.67
66034;SPS30;52805;51.074;5.842;2023-02-01T04:07:36;2.27;2.17;1.99;1.67;13.37;13.36;13.32;13.03;10.80;0.67
66034;SPS30;52805;51.074;5.842;2023-02-01T04:10:02;2.50;2.39;2.17;1.80;14.39;14.38;14.32;13.99;11.55;0.67
66034;SPS30;52805;51.074;5.842;2023-02-01T04:12:28;2.28;2.17;1.96;1.60;12.82;12.81;12.76;12.44;10.24;0.67
66034;SPS30;52805;51.074;5.842;2023-02-01T04:14:54;2.16;2.06;1.86;1.53;12.27;12.26;12.21;11.91;9.82;0.67
66034;SPS30;52805;51.074;5.842;2023-02-01T04:17:20;2.11;2.02;1.84;1.54;12.30;12.29;12.25;11.97;9.90;0.65
66034;SPS30;52805;51.074;5.842;2023-02-01T04:19:45;2.01;1.93;1.78;1.51;12.07;12.06;12.02;11.78;9.78;0.65
66034;SPS30;52805;51.074;5.842;2023-02-01T04:22:11;2.15;2.07;1.93;1.65;13.22;13.21;13.17;12.94;10.78;0.67
66034;SPS30;52805;51.074;5.842;2023-02-01T04:24:37;2.30;2.21;2.01;1.67;13.37;13.36;13.31;13.01;10.76;0.70
66034;SPS30;52805;51.074;5.842;2023-02-01T04:27:03;2.27;2.16;1.95;1.59;12.76;12.75;12.69;12.37;10.18;0.71
66034;SPS30;52805;51.074;5.842;2023-02-01T04:29:29;2.20;2.11;1.93;1.62;12.94;12.93;12.88;12.60;10.43;0.70
66034;SPS30;52805;51.074;5.842;2023-02-01T04:31:55;1.95;1.86;1.70;1.42;11.34;11.33;11.28;11.03;9.12;0.71
66034;SPS30;52805;51.074;5.842;2023-02-01T04:34:20;2.13;2.03;1.83;1.50;12.04;12.03;11.98;11.69;9.63;0.70
66034;SPS30;52805;51.074;5.842;2023-02-01T04:36:48;2.68;2.53;2.24;1.78;14.26;14.24;14.17;13.74;11.22;0.72
66034;SPS30;52805;51.074;5.842;2023-02-01T04:39:13;2.35;2.22;1.96;1.56;12.51;12.49;12.43;12.06;9.84;0.72
66034;SPS30;52805;51.074;5.842;2023-02-01T04:41:39;2.57;2.43;2.16;1.73;13.86;13.85;13.78;13.38;10.95;0.72
66034;SPS30;52805;51.074;5.842;2023-02-01T04:44:05;2.41;2.29;2.04;1.63;13.10;13.08;13.02;12.65;10.36;0.71
66034;SPS30;52805;51.074;5.842;2023-02-01T04:46:31;2.52;2.39;2.14;1.73;13.87;13.86;13.80;13.42;11.02;0.71
66034;SPS30;52805;51.074;5.842;2023-02-01T04:48:56;2.81;2.66;2.36;1.89;15.14;15.13;15.05;14.62;11.96;0.72
66034;SPS30;52805;51.074;5.842;2023-02-01T04:51:22;3.00;2.83;2.51;1.99;15.98;15.96;15.88;15.40;12.58;0.74
66034;SPS30;52805;51.074;5.842;2023-02-01T04:53:48;2.54;2.39;2.09;1.64;13.13;13.11;13.04;12.61;10.24;0.75
66034;SPS30;52805;51.074;5.842;2023-02-01T04:56:13;2.70;2.54;2.22;1.72;13.83;13.81;13.73;13.27;10.76;0.74
66034;SPS30;52805;51.074;5.842;2023-02-01T04:58:39;2.71;2.53;2.19;1.67;13.37;13.36;13.27;12.78;10.30;0.76
66034;SPS30;52805;51.074;5.842;2023-02-01T05:01:05;2.57;2.40;2.04;1.52;12.21;12.19;12.10;11.61;9.29;0.77
66034;SPS30;52805;51.074;5.842;2023-02-01T05:03:32;2.98;2.75;2.31;1.67;13.39;13.36;13.26;12.64;10.01;0.78
66034;SPS30;52805;51.074;5.842;2023-02-01T05:05:58;3.22;2.98;2.50;1.80;14.49;14.46;14.35;13.68;10.84;0.78
66034;SPS30;52805;51.074;5.842;2023-02-01T05:08:25;3.09;2.84;2.35;1.65;13.30;13.27;13.15;12.48;9.80;0.80
66034;SPS30;52805;51.074;5.842;2023-02-01T05:10:51;2.90;2.67;2.22;1.58;12.70;12.68;12.57;11.95;9.42;0.80
66034;SPS30;52805;51.074;5.842;2023-02-01T05:13:17;2.88;2.67;2.26;1.66;13.34;13.31;13.21;12.64;10.08;0.78
66034;SPS30;52805;51.074;5.842;2023-02-01T05:16:01;2.73;2.54;2.16;1.61;12.93;12.91;12.82;12.29;9.84;0.79
66034;SPS30;52805;51.074;5.842;2023-02-01T05:18:27;2.87;2.66;2.25;1.66;13.31;13.28;13.18;12.61;10.06;0.80
66034;SPS30;52805;51.074;5.842;2023-02-01T05:20:53;2.86;2.64;2.22;1.60;12.87;12.85;12.74;12.15;9.63;0.81
66034;SPS30;52805;51.074;5.842;2023-02-01T05:23:18;3.18;2.93;2.44;1.74;13.97;13.94;13.82;13.15;10.37;0.82
66034;SPS30;52805;51.074;5.842;2023-02-01T05:25:44;2.89;2.69;2.28;1.68;13.49;13.47;13.37;12.80;10.21;0.78
66034;SPS30;52805;51.074;5.842;2023-02-01T05:28:10;2.50;2.33;2.01;1.53;12.28;12.27;12.19;11.73;9.45;0.76
66034;SPS30;52805;51.074;5.842;2023-02-01T05:30:36;2.36;2.21;1.92;1.48;11.88;11.86;11.79;11.38;9.21;0.75
66034;SPS30;52805;51.074;5.842;2023-02-01T05:33:02;2.52;2.36;2.04;1.56;12.52;12.50;12.43;11.98;9.67;0.76
66034;SPS30;52805;51.074;5.842;2023-02-01T05:35:28;2.61;2.44;2.10;1.59;12.76;12.74;12.66;12.18;9.80;0.75
66034;SPS30;52805;51.074;5.842;2023-02-01T05:37:54;2.48;2.32;2.01;1.54;12.37;12.35;12.27;11.83;9.55;0.75
66034;SPS30;52805;51.074;5.842;2023-02-01T05:40:20;2.94;2.74;2.35;1.78;14.26;14.24;14.15;13.60;10.93;0.77
66034;SPS30;52805;51.074;5.842;2023-02-01T05:42:46;2.82;2.62;2.20;1.60;12.88;12.85;12.75;12.18;9.68;0.79
66034;SPS30;52805;51.074;5.842;2023-02-01T05:45:11;2.89;2.69;2.28;1.67;13.45;13.43;13.33;12.75;10.17;0.77
66034;SPS30;52805;51.074;5.842;2023-02-01T05:47:37;2.76;2.57;2.21;1.67;13.41;13.39;13.30;12.78;10.28;0.77
66034;SPS30;52805;51.074;5.842;2023-02-01T05:50:03;2.94;2.73;2.32;1.71;13.77;13.74;13.64;13.06;10.43;0.78
66034;SPS30;52805;51.074;5.842;2023-02-01T05:52:29;2.77;2.59;2.22;1.68;13.51;13.49;13.40;12.89;10.37;0.76
66034;SPS30;52805;51.074;5.842;2023-02-01T05:54:55;3.00;2.82;2.45;1.90;15.24;15.22;15.13;14.61;11.84;0.75
66034;SPS30;52805;51.074;5.842;2023-02-01T05:57:21;3.00;2.81;2.43;1.85;14.86;14.84;14.75;14.20;11.45;0.74
66034;SPS30;52805;51.074;5.842;2023-02-01T05:59:47;3.15;2.95;2.56;1.96;15.69;15.67;15.57;15.00;12.11;0.74
66034;SPS30;52805;51.074;5.842;2023-02-01T06:02:14;2.66;2.49;2.16;1.66;13.34;13.33;13.24;12.78;10.33;0.76
66034;SPS30;52805;51.074;5.842;2023-02-01T06:04:41;2.90;2.72;2.36;1.81;14.51;14.49;14.40;13.88;11.22;0.75
66034;SPS30;52805;51.074;5.842;2023-02-01T06:07:07;2.66;2.48;2.11;1.58;12.68;12.66;12.57;12.07;9.67;0.77
66034;SPS30;52805;51.074;5.842;2023-02-01T06:09:34;2.81;2.63;2.26;1.71;13.75;13.73;13.64;13.12;10.56;0.75
66034;SPS30;52805;51.074;5.842;2023-02-01T06:12:01;2.74;2.56;2.20;1.66;13.35;13.33;13.24;12.74;10.24;0.77
66034;SPS30;52805;51.074;5.842;2023-02-01T06:14:28;2.90;2.70;2.31;1.73;13.88;13.85;13.76;13.21;10.59;0.78
66034;SPS30;52805;51.074;5.842;2023-02-01T06:16:54;2.68;2.48;2.08;1.51;12.12;12.10;12.00;11.45;9.09;0.79
66034;SPS30;52805;51.074;5.842;2023-02-01T06:19:20;2.76;2.56;2.16;1.58;12.72;12.70;12.61;12.05;9.60;0.78
66034;SPS30;52805;51.074;5.842;2023-02-01T06:21:47;3.07;2.85;2.43;1.80;14.42;14.40;14.29;13.69;10.94;0.78
66034;SPS30;52805;51.074;5.842;2023-02-01T06:24:13;2.63;2.45;2.09;1.56;12.51;12.49;12.40;11.90;9.53;0.78
66034;SPS30;52805;51.074;5.842;2023-02-01T06:26:39;2.59;2.41;2.07;1.56;12.55;12.53;12.45;11.97;9.62;0.76
66034;SPS30;52805;51.074;5.842;2023-02-01T06:29:06;2.79;2.59;2.20;1.62;13.04;13.02;12.93;12.38;9.89;0.77
66034;SPS30;52805;51.074;5.842;2023-02-01T06:31:32;2.72;2.52;2.12;1.54;12.41;12.39;12.29;11.74;9.33;0.78
66034;SPS30;52805;51.074;5.842;2023-02-01T06:33:58;2.50;2.33;1.97;1.45;11.62;11.61;11.52;11.02;8.79;0.76
66034;SPS30;52805;51.074;5.842;2023-02-01T06:36:24;2.54;2.36;2.02;1.50;12.07;12.05;11.96;11.48;9.19;0.76
66034;SPS30;52805;51.074;5.842;2023-02-01T06:38:50;3.45;3.20;2.70;1.98;15.89;15.86;15.74;15.05;11.98;0.77
66034;SPS30;52805;51.074;5.842;2023-02-01T06:41:16;2.85;2.64;2.24;1.64;13.21;13.18;13.08;12.52;9.98;0.77
66034;SPS30;52805;51.074;5.842;2023-02-01T06:43:42;3.20;2.98;2.54;1.89;15.18;15.16;15.05;14.43;11.55;0.77
66034;SPS30;52805;51.074;5.842;2023-02-01T06:46:09;2.77;2.58;2.21;1.65;13.26;13.24;13.15;12.62;10.12;0.77
66034;SPS30;52805;51.074;5.842;2023-02-01T06:48:37;2.83;2.64;2.25;1.68;13.45;13.43;13.34;12.79;10.24;0.77
66034;SPS30;52805;51.074;5.842;2023-02-01T06:51:03;2.56;2.40;2.06;1.56;12.49;12.47;12.39;11.91;9.58;0.76
66034;SPS30;52805;51.074;5.842;2023-02-01T06:53:30;2.90;2.71;2.32;1.73;13.92;13.90;13.81;13.26;10.63;0.77
66034;SPS30;52805;51.074;5.842;2023-02-01T06:55:57;2.85;2.68;2.33;1.81;14.52;14.50;14.42;13.92;11.29;0.74
66034;SPS30;52805;51.074;5.842;2023-02-01T06:58:27;2.83;2.65;2.29;1.75;14.04;14.02;13.93;13.42;10.83;0.75
66034;SPS30;52805;51.074;5.842;2023-02-01T07:00:54;3.04;2.85;2.45;1.86;14.95;14.93;14.83;14.27;11.50;0.75
66034;SPS30;52805;51.074;5.842;2023-02-01T07:03:20;3.17;2.97;2.57;1.96;15.72;15.70;15.60;15.03;12.13;0.75
66034;SPS30;52805;51.074;5.842;2023-02-01T07:05:46;2.92;2.72;2.31;1.71;13.77;13.74;13.64;13.08;10.45;0.78
66034;SPS30;52805;51.074;5.842;2023-02-01T07:08:12;3.14;2.90;2.44;1.77;14.20;14.18;14.06;13.42;10.65;0.79
66034;SPS30;52805;51.074;5.842;2023-02-01T07:10:37;2.81;2.60;2.18;1.57;12.65;12.63;12.52;11.94;9.47;0.77
66034;SPS30;52805;51.074;5.842;2023-02-01T07:13:03;2.82;2.63;2.25;1.69;13.57;13.55;13.46;12.92;10.37;0.74
66034;SPS30;52805;51.074;5.842;2023-02-01T07:15:29;3.16;2.95;2.52;1.89;15.17;15.15;15.04;14.44;11.58;0.75
66034;SPS30;52805;51.074;5.842;2023-02-01T07:17:55;3.10;2.87;2.43;1.79;14.34;14.32;14.21;13.59;10.83;0.76
66034;SPS30;52805;51.074;5.842;2023-02-01T07:20:21;2.83;2.63;2.23;1.65;13.23;13.20;13.11;12.55;10.01;0.76
66034;SPS30;52805;51.074;5.842;2023-02-01T07:22:47;2.82;2.63;2.24;1.67;13.43;13.41;13.32;12.78;10.23;0.76
66034;SPS30;52805;51.074;5.842;2023-02-01T07:25:13;2.81;2.62;2.25;1.70;13.61;13.59;13.50;12.98;10.43;0.75
66034;SPS30;52805;51.074;5.842;2023-02-01T07:27:38;3.06;2.84;2.41;1.78;14.31;14.28;14.18;13.58;10.84;0.76
66034;SPS30;52805;51.074;5.842;2023-02-01T07:30:05;2.97;2.77;2.36;1.76;14.12;14.10;14.00;13.42;10.75;0.75
66034;SPS30;52805;51.074;5.842;2023-02-01T07:32:31;3.41;3.16;2.65;1.92;15.45;15.42;15.30;14.60;11.59;0.77
66034;SPS30;52805;51.074;5.842;2023-02-01T07:34:57;3.36;3.11;2.61;1.89;15.21;15.18;15.06;14.36;11.39;0.78
66034;SPS30;52805;51.074;5.842;2023-02-01T07:37:24;2.79;2.59;2.19;1.61;12.92;12.90;12.80;12.24;9.76;0.77
66034;SPS30;52805;51.074;5.842;2023-02-01T07:39:52;3.14;2.92;2.49;1.85;14.88;14.86;14.75;14.15;11.32;0.76
66034;SPS30;52805;51.074;5.842;2023-02-01T07:42:18;3.11;2.90;2.47;1.83;14.71;14.69;14.58;13.98;11.18;0.77
66034;SPS30;52805;51.074;5.842;2023-02-01T07:44:44;2.62;2.45;2.12;1.61;12.95;12.93;12.85;12.38;9.98;0.75
66034;SPS30;52805;51.074;5.842;2023-02-01T07:47:10;2.84;2.66;2.29;1.74;13.95;13.93;13.84;13.32;10.73;0.77
66034;SPS30;52805;51.074;5.842;2023-02-01T07:49:35;2.97;2.78;2.41;1.84;14.75;14.73;14.63;14.10;11.38;0.76
66034;SPS30;52805;51.074;5.842;2023-02-01T07:52:01;2.82;2.66;2.33;1.83;14.66;14.64;14.56;14.09;11.46;0.74
66034;SPS30;52805;51.074;5.842;2023-02-01T07:54:27;3.06;2.87;2.48;1.90;15.24;15.22;15.12;14.58;11.77;0.75
66034;SPS30;52805;51.074;5.842;2023-02-01T07:56:53;2.83;2.66;2.30;1.77;14.21;14.19;14.10;13.60;10.99;0.74
66034;SPS30;52805;51.074;5.842;2023-02-01T07:59:18;3.11;2.93;2.58;2.03;16.25;16.23;16.14;15.63;12.72;0.73
66034;SPS30;52805;51.074;5.842;2023-02-01T08:01:44;2.84;2.67;2.35;1.84;14.75;14.73;14.65;14.17;11.53;0.73
66034;SPS30;52805;51.074;5.842;2023-02-01T08:04:10;2.43;2.29;2.01;1.57;12.57;12.55;12.48;12.07;9.81;0.72
66034;SPS30;52805;51.074;5.842;2023-02-01T08:06:38;2.75;2.59;2.26;1.75;14.04;14.03;13.94;13.47;10.92;0.73
66034;SPS30;52805;51.074;5.842;2023-02-01T08:09:05;2.86;2.68;2.33;1.79;14.34;14.32;14.23;13.73;11.10;0.74
66034;SPS30;52805;51.074;5.842;2023-02-01T08:11:33;2.82;2.64;2.28;1.74;14.00;13.98;13.89;13.38;10.80;0.74
66034;SPS30;52805;51.074;5.842;2023-02-01T08:13:59;2.57;2.41;2.09;1.60;12.84;12.82;12.74;12.28;9.92;0.73
66034;SPS30;52805;51.074;5.842;2023-02-01T08:16:25;3.05;2.85;2.46;1.86;14.94;14.92;14.82;14.26;11.48;0.73
66034;SPS30;52805;51.074;5.842;2023-02-01T08:18:51;3.00;2.79;2.37;1.75;14.09;14.07;13.97;13.38;10.70;0.74
66034;SPS30;52805;51.074;5.842;2023-02-01T08:21:20;3.11;2.89;2.45;1.81;14.57;14.55;14.44;13.83;11.05;0.75
66034;SPS30;52805;51.074;5.842;2023-02-01T08:23:48;3.19;2.97;2.52;1.86;14.97;14.94;14.83;14.21;11.35;0.77
66034;SPS30;52805;51.074;5.842;2023-02-01T08:26:16;2.97;2.77;2.37;1.78;14.29;14.27;14.17;13.61;10.93;0.75
66034;SPS30;52805;51.074;5.842;2023-02-01T08:28:46;3.43;3.20;2.74;2.06;16.57;16.54;16.43;15.79;12.68;0.76
66034;SPS30;52805;51.074;5.842;2023-02-01T08:31:17;2.72;2.55;2.21;1.69;13.58;13.56;13.48;12.99;10.49;0.75
66034;SPS30;52805;51.074;5.842;2023-02-01T08:33:47;2.77;2.59;2.24;1.71;13.74;13.72;13.63;13.13;10.60;0.76
66034;SPS30;52805;51.074;5.842;2023-02-01T08:36:16;3.17;2.98;2.59;2.00;16.06;16.04;15.94;15.39;12.46;0.74
66034;SPS30;52805;51.074;5.842;2023-02-01T08:38:41;3.06;2.88;2.52;1.97;15.77;15.75;15.66;15.14;12.30;0.74
66034;SPS30;52805;51.074;5.842;2023-02-01T08:41:08;2.94;2.75;2.38;1.82;14.57;14.55;14.45;13.92;11.23;0.77
66034;SPS30;52805;51.074;5.842;2023-02-01T08:43:37;3.01;2.80;2.39;1.77;14.22;14.20;14.10;13.51;10.81;0.78
66034;SPS30;52805;51.074;5.842;2023-02-01T08:46:03;3.01;2.80;2.39;1.78;14.32;14.30;14.20;13.62;10.91;0.76
66034;SPS30;52805;51.074;5.842;2023-02-01T08:48:31;2.87;2.70;2.35;1.83;14.67;14.65;14.56;14.07;11.41;0.73
66034;SPS30;52805;51.074;5.842;2023-02-01T08:50:57;2.99;2.78;2.37;1.77;14.19;14.17;14.06;13.49;10.80;0.76
66034;SPS30;52805;51.074;5.842;2023-02-01T08:53:22;2.61;2.43;2.07;1.53;12.32;12.30;12.21;11.70;9.36;0.78
66034;SPS30;52805;51.074;5.842;2023-02-01T08:55:48;3.33;3.10;2.65;1.97;15.80;15.78;15.66;15.02;12.02;0.77
66034;SPS30;52805;51.074;5.842;2023-02-01T08:58:14;3.38;3.13;2.63;1.92;15.39;15.37;15.25;14.56;11.57;0.79
66034;SPS30;52805;51.074;5.842;2023-02-01T09:00:42;3.14;2.93;2.51;1.89;15.17;15.15;15.04;14.45;11.61;0.76
66034;SPS30;52805;51.074;5.842;2023-02-01T09:03:10;2.88;2.72;2.38;1.86;14.94;14.92;14.84;14.36;11.67;0.73
66034;SPS30;52805;51.074;5.842;2023-02-01T09:05:37;2.82;2.66;2.33;1.83;14.71;14.69;14.61;14.15;11.51;0.73
66034;SPS30;52805;51.074;5.842;2023-02-01T09:08:04;3.05;2.88;2.53;1.99;15.93;15.91;15.82;15.32;12.46;0.75
66034;SPS30;52805;51.074;5.842;2023-02-01T09:10:30;3.08;2.90;2.54;1.98;15.86;15.84;15.75;15.22;12.36;0.74
66034;SPS30;52805;51.074;5.842;2023-02-01T09:12:57;2.93;2.76;2.40;1.86;14.92;14.90;14.81;14.30;11.59;0.75
66034;SPS30;52805;51.074;5.842;2023-02-01T09:15:22;3.31;3.10;2.68;2.05;16.45;16.43;16.33;15.73;12.70;0.75
66034;SPS30;52805;51.074;5.842;2023-02-01T09:17:48;2.86;2.69;2.34;1.81;14.56;14.54;14.45;13.96;11.31;0.75
66034;SPS30;52805;51.074;5.842;2023-02-01T09:20:14;2.77;2.61;2.30;1.81;14.48;14.46;14.38;13.93;11.34;0.74
66034;SPS30;52805;51.074;5.842;2023-02-01T09:22:40;2.75;2.58;2.24;1.71;13.74;13.72;13.64;13.14;10.62;0.76
66034;SPS30;52805;51.074;5.842;2023-02-01T09:25:07;2.96;2.77;2.40;1.84;14.74;14.72;14.62;14.09;11.38;0.76
66034;SPS30;52805;51.074;5.842;2023-02-01T09:27:33;2.66;2.52;2.22;1.76;14.10;14.09;14.01;13.58;11.08;0.72
66034;SPS30;52805;51.074;5.842;2023-02-01T09:29:59;2.84;2.67;2.33;1.81;14.50;14.48;14.40;13.91;11.28;0.75
66034;SPS30;52805;51.074;5.842;2023-02-01T09:32:25;2.77;2.58;2.22;1.67;13.41;13.39;13.30;12.78;10.27;0.76
66034;SPS30;52805;51.074;5.842;2023-02-01T09:34:51;2.74;2.57;2.23;1.72;13.81;13.79;13.71;13.23;10.71;0.75
66034;SPS30;52805;51.074;5.842;2023-02-01T09:37:18;2.82;2.67;2.37;1.89;15.18;15.16;15.09;14.65;11.98;0.73
66034;SPS30;52805;51.074;5.842;2023-02-01T09:39:44;2.35;2.23;1.98;1.59;12.72;12.70;12.64;12.28;10.05;0.73
66034;SPS30;52805;51.074;5.842;2023-02-01T09:42:19;2.70;2.54;2.24;1.76;14.07;14.06;13.98;13.53;11.01;0.74
66034;SPS30;52805;51.074;5.842;2023-02-01T09:45:11;2.75;2.58;2.25;1.74;13.98;13.96;13.88;13.40;10.86;0.75
66034;SPS30;52805;51.074;5.842;2023-02-01T09:47:55;2.78;2.62;2.30;1.81;14.49;14.47;14.39;13.93;11.33;0.72
66034;SPS30;52805;51.074;5.842;2023-02-01T10:00:37;2.53;2.40;2.16;1.75;14.04;14.02;13.96;13.59;11.17;0.70